Time;durP1;ratioP1;P1;durP2;ratioP2;P2;SDS_P1;SDS_P2;PMS_P1;PMS_P2;Temp;Humidity;BMP_temperature;BMP_pressure;BME280_temperature;BME280_humidity;BME280_pressure;Samples;Min_cycle;Max_cycle;Signal;HPM_P1;HPM_P2
2022/10/01 00:02:03;;;;;;;9.05;5.22;;;11.50;99.90;;;;;;5044335;28;20120;-74
2022/10/01 00:04:29;;;;;;;10.30;5.78;;;11.50;99.90;;;;;;5040705;28;20104;-73
2022/10/01 00:06:58;;;;;;;10.98;5.07;;;11.50;99.90;;;;;;5042228;28;20028;-73
2022/10/01 00:09:24;;;;;;;12.20;5.35;;;11.50;99.90;;;;;;5041411;28;20045;-73
2022/10/01 00:11:49;;;;;;;7.57;4.03;;;11.50;99.90;;;;;;5040947;28;20045;-73
2022/10/01 00:14:16;;;;;;;9.13;5.55;;;11.50;99.90;;;;;;5040402;28;20083;-74
2022/10/01 00:16:41;;;;;;;7.50;4.70;;;11.60;99.90;;;;;;5056578;28;20021;-73
2022/10/01 00:19:12;;;;;;;11.98;6.43;;;11.50;99.90;;;;;;5041437;28;20039;-74
2022/10/01 00:21:37;;;;;;;10.30;5.63;;;11.50;99.90;;;;;;5037375;28;20079;-73
2022/10/01 00:24:04;;;;;;;6.93;4.07;;;11.60;99.90;;;;;;5038525;28;20041;-73
2022/10/01 00:26:32;;;;;;;6.57;3.65;;;11.60;99.90;;;;;;5042117;28;20464;-74
2022/10/01 00:29:01;;;;;;;10.18;5.40;;;11.60;99.90;;;;;;5038210;28;20037;-73
2022/10/01 00:31:27;;;;;;;12.18;6.13;;;11.60;99.90;;;;;;5040967;28;20063;-74
2022/10/01 00:33:54;;;;;;;10.52;5.03;;;11.60;99.90;;;;;;5036479;28;20148;-74
2022/10/01 00:36:20;;;;;;;8.43;4.57;;;11.60;99.90;;;;;;5032329;28;20475;-75
2022/10/01 00:38:47;;;;;;;5.68;3.50;;;11.60;99.90;;;;;;5011998;28;20034;-74
2022/10/01 00:41:14;;;;;;;8.20;4.40;;;11.70;99.90;;;;;;5025811;28;20147;-74
2022/10/01 00:43:46;;;;;;;11.60;4.82;;;11.70;99.90;;;;;;5030511;28;20112;-73
2022/10/01 00:46:14;;;;;;;;;;;11.70;99.90;;;;;;5032666;28;20021;-73
2022/10/01 00:49:19;;;;;;;3.78;2.80;;;11.60;99.90;;;;;;5032575;28;19913;-73
2022/10/01 00:51:57;;;;;;;7.05;3.60;;;11.60;99.90;;;;;;5030071;28;20587;-73
2022/10/01 00:54:38;;;;;;;8.40;3.92;;;11.60;99.90;;;;;;5013724;28;20476;-73
2022/10/01 00:57:14;;;;;;;8.43;3.95;;;11.70;99.90;;;;;;5031061;28;20029;-74
2022/10/01 00:59:39;;;;;;;5.20;2.97;;;11.70;99.90;;;;;;5030133;28;20398;-74
2022/10/01 01:02:05;;;;;;;3.88;2.78;;;11.70;99.90;;;;;;5032470;28;20097;-74
2022/10/01 01:04:31;;;;;;;6.78;3.50;;;11.70;99.90;;;;;;5032026;28;20120;-74
2022/10/01 01:06:59;;;;;;;6.10;3.58;;;11.70;99.90;;;;;;5032501;28;20034;-74
2022/10/01 01:09:33;;;;;;;7.28;3.40;;;11.70;99.90;;;;;;5031981;28;20490;-74
2022/10/01 01:12:40;;;;;;;3.92;2.30;;;11.70;99.90;;;;;;5032077;28;20089;-74
2022/10/01 01:15:31;;;;;;;8.23;3.78;;;11.70;99.90;;;;;;5030243;28;20410;-75
2022/10/01 01:18:20;;;;;;;5.80;3.03;;;11.70;99.90;;;;;;5032050;28;20033;-73
2022/10/01 01:21:16;;;;;;;5.97;3.13;;;11.70;99.90;;;;;;5030587;28;20367;-73
2022/10/01 01:24:15;;;;;;;8.30;3.75;;;11.70;99.90;;;;;;5031799;28;20460;-73
2022/10/01 01:27:05;;;;;;;5.20;3.08;;;11.70;99.90;;;;;;5032187;28;20037;-74
2022/10/01 01:29:39;;;;;;;6.78;3.40;;;11.70;99.90;;;;;;5035706;28;20029;-74
2022/10/01 01:32:18;;;;;;;5.90;3.85;;;11.70;99.90;;;;;;5035816;28;20044;-74
2022/10/01 01:34:47;;;;;;;8.18;4.47;;;11.80;99.90;;;;;;5035594;28;20041;-74
2022/10/01 01:37:17;;;;;;;11.30;4.97;;;11.80;99.90;;;;;;5035039;28;20114;-74
2022/10/01 01:39:46;;;;;;;8.57;5.10;;;11.80;99.90;;;;;;5033977;28;20406;-74
2022/10/01 01:42:23;;;;;;;4.18;3.35;;;11.80;99.90;;;;;;5034202;28;20109;-74
2022/10/01 01:44:53;;;;;;;10.48;4.38;;;11.80;99.90;;;;;;5035459;28;20033;-74
2022/10/01 01:47:23;;;;;;;5.47;3.58;;;11.90;99.90;;;;;;5035379;28;20021;-74
2022/10/01 01:49:51;;;;;;;8.43;4.45;;;11.90;99.90;;;;;;5035681;28;20025;-74
2022/10/01 01:52:17;;;;;;;6.00;3.90;;;11.90;99.90;;;;;;5035281;28;20485;-74
2022/10/01 01:54:48;;;;;;;5.85;3.63;;;11.90;99.90;;;;;;5034699;28;20123;-74
2022/10/01 01:57:16;;;;;;;8.50;5.57;;;11.90;99.90;;;;;;5035086;28;20089;-74
2022/10/01 01:59:42;;;;;;;9.20;4.30;;;11.90;99.90;;;;;;5034914;28;20095;-74
2022/10/01 02:02:15;;;;;;;8.45;4.78;;;12.00;99.90;;;;;;5034961;28;20029;-74
2022/10/01 02:04:47;;;;;;;5.65;3.90;;;12.00;99.90;;;;;;5035100;28;20032;-73
2022/10/01 02:07:28;;;;;;;8.85;5.50;;;12.00;99.90;;;;;;5034865;28;20048;-73
2022/10/01 02:10:13;;;;;;;7.88;3.70;;;12.10;99.90;;;;;;5034517;28;20079;-73
2022/10/01 02:13:03;;;;;;;11.10;4.13;;;12.10;99.90;;;;;;5032272;28;20542;-73
2022/10/01 02:15:50;;;;;;;9.18;4.32;;;12.10;99.90;;;;;;5034333;28;20041;-74
2022/10/01 02:18:39;;;;;;;10.73;5.47;;;12.10;99.90;;;;;;5035147;28;20112;-73
2022/10/01 02:21:27;;;;;;;6.97;3.60;;;12.20;99.90;;;;;;5034472;28;20037;-73
2022/10/01 02:24:04;;;;;;;6.45;3.13;;;12.20;99.90;;;;;;5034291;28;20052;-73
2022/10/01 02:26:31;;;;;;;10.65;4.72;;;12.30;99.90;;;;;;5042078;28;20035;-73
2022/10/01 02:29:02;;;;;;;6.68;4.20;;;12.30;99.90;;;;;;5036770;28;20021;-73
2022/10/01 02:31:29;;;;;;;12.90;5.80;;;12.30;99.90;;;;;;5034483;28;20029;-73
2022/10/01 02:33:57;;;;;;;7.40;3.13;;;12.30;99.90;;;;;;5034003;28;20446;-74
2022/10/01 02:36:25;;;;;;;11.25;4.90;;;12.40;99.90;;;;;;5034278;28;20033;-74
2022/10/01 02:38:53;;;;;;;5.60;3.75;;;12.40;99.90;;;;;;5032808;28;20033;-74
2022/10/01 02:41:23;;;;;;;7.80;4.88;;;12.50;99.90;;;;;;5034362;28;20078;-74
2022/10/01 02:43:55;;;;;;;7.78;4.88;;;12.50;99.90;;;;;;5034210;28;20037;-74
2022/10/01 02:46:36;;;;;;;9.40;4.15;;;12.60;99.90;;;;;;5034797;28;20069;-74
2022/10/01 02:49:03;;;;;;;8.27;5.03;;;12.60;99.90;;;;;;5034257;28;20025;-74
2022/10/01 02:51:54;;;;;;;11.63;4.55;;;12.70;99.90;;;;;;5034322;28;20163;-74
2022/10/01 02:55:02;;;;;;;8.65;5.43;;;12.70;99.90;;;;;;5029216;28;20049;-74
2022/10/01 02:57:28;;;;;;;10.23;4.95;;;12.70;99.90;;;;;;5033662;28;20034;-75
2022/10/01 02:59:56;;;;;;;7.95;4.35;;;12.70;99.90;;;;;;5033988;28;20076;-75
2022/10/01 03:02:25;;;;;;;10.80;5.43;;;12.70;99.90;;;;;;5034031;28;20025;-74
2022/10/01 03:04:51;;;;;;;8.38;4.47;;;12.80;99.90;;;;;;5033916;28;20025;-74
2022/10/01 03:07:17;;;;;;;10.20;5.53;;;12.80;99.90;;;;;;5033898;28;20018;-74
2022/10/01 03:09:43;;;;;;;7.30;4.00;;;12.80;99.90;;;;;;5033857;28;20022;-74
2022/10/01 03:12:09;;;;;;;9.32;5.50;;;12.80;99.90;;;;;;5033732;28;20383;-74
2022/10/01 03:14:36;;;;;;;7.47;4.07;;;12.90;99.90;;;;;;5033706;28;20037;-75
2022/10/01 03:17:02;;;;;;;13.93;6.22;;;12.90;99.90;;;;;;5033670;28;20126;-76
2022/10/01 03:19:28;;;;;;;7.57;5.18;;;12.90;99.90;;;;;;5033606;28;20052;-75
2022/10/01 03:21:55;;;;;;;10.82;6.28;;;12.90;99.90;;;;;;5033656;28;20379;-75
2022/10/01 03:24:21;;;;;;;12.75;5.63;;;12.90;99.90;;;;;;5033517;28;20029;-74
2022/10/01 03:26:46;;;;;;;9.32;5.15;;;12.90;99.90;;;;;;5033380;28;20479;-73
2022/10/01 03:29:12;;;;;;;14.95;5.72;;;12.90;99.90;;;;;;5033580;28;20025;-73
2022/10/01 03:31:37;;;;;;;15.18;5.78;;;13.00;99.90;;;;;;5033444;28;20030;-73
2022/10/01 03:34:03;;;;;;;9.35;3.92;;;13.00;99.90;;;;;;5033315;28;20489;-73
2022/10/01 03:36:29;;;;;;;15.40;4.68;;;13.10;99.90;;;;;;5033184;28;20021;-74
2022/10/01 03:38:55;;;;;;;11.93;5.57;;;13.10;99.90;;;;;;5033282;28;20037;-73
2022/10/01 03:41:21;;;;;;;26.63;7.40;;;13.20;99.90;;;;;;5032891;28;20087;-74
2022/10/01 03:43:47;;;;;;;19.30;7.47;;;13.30;99.90;;;;;;5032052;28;20075;-74
2022/10/01 03:46:12;;;;;;;14.73;4.88;;;13.50;99.90;;;;;;5033145;28;20069;-73
2022/10/01 03:48:38;;;;;;;18.27;4.93;;;13.50;99.90;;;;;;5033021;28;20064;-73
2022/10/01 03:51:04;;;;;;;26.30;7.45;;;13.50;99.90;;;;;;5032560;28;20025;-74
2022/10/01 03:53:30;;;;;;;23.30;4.88;;;13.60;99.90;;;;;;5032626;28;20061;-74
2022/10/01 03:55:57;;;;;;;20.20;4.22;;;13.60;99.90;;;;;;5032974;28;20144;-73
2022/10/01 03:58:23;;;;;;;15.45;4.43;;;13.70;99.90;;;;;;5032759;28;20364;-74
2022/10/01 04:00:49;;;;;;;20.50;4.75;;;13.70;99.90;;;;;;5032845;28;20159;-73
2022/10/01 04:03:15;;;;;;;18.40;4.32;;;13.80;99.90;;;;;;5032852;28;20025;-74
2022/10/01 04:05:42;;;;;;;34.85;4.85;;;13.90;99.90;;;;;;5033025;28;20402;-74
2022/10/01 04:08:08;;;;;;;13.95;4.18;;;13.90;99.90;;;;;;5032730;28;20033;-73
2022/10/01 04:10:34;;;;;;;19.98;4.55;;;14.00;99.90;;;;;;5032515;28;20029;-74
2022/10/01 04:13:00;;;;;;;21.98;3.72;;;14.00;99.90;;;;;;5032901;28;20030;-74
2022/10/01 04:15:26;;;;;;;19.52;3.85;;;14.00;99.90;;;;;;5032717;28;20045;-73
2022/10/01 04:17:52;;;;;;;17.52;4.47;;;14.00;99.90;;;;;;5027006;28;20034;-73
2022/10/01 04:20:18;;;;;;;18.52;4.22;;;14.00;99.90;;;;;;5032422;28;20101;-73
2022/10/01 04:22:44;;;;;;;18.13;4.07;;;14.10;99.90;;;;;;5032400;28;20032;-73
2022/10/01 04:25:11;;;;;;;18.23;3.65;;;14.00;99.90;;;;;;5032445;28;20037;-73
2022/10/01 04:27:41;;;;;;;23.70;3.35;;;14.10;99.90;;;;;;5031983;28;20029;-73
2022/10/01 04:30:08;;;;;;;16.92;4.85;;;14.00;99.90;;;;;;5032564;28;20037;-73
2022/10/01 04:32:34;;;;;;;14.35;3.92;;;14.10;99.90;;;;;;5032651;28;20061;-73
2022/10/01 04:35:02;;;;;;;13.10;3.22;;;14.00;99.90;;;;;;5032447;28;20072;-73
2022/10/01 04:37:27;;;;;;;20.02;4.18;;;14.00;99.90;;;;;;5032277;28;20038;-74
2022/10/01 04:39:53;;;;;;;19.58;3.80;;;14.00;99.90;;;;;;5032264;28;20048;-73
2022/10/01 04:42:20;;;;;;;16.77;3.28;;;13.90;99.90;;;;;;5031855;28;20403;-74
2022/10/01 04:44:46;;;;;;;21.38;4.70;;;13.90;99.90;;;;;;5032237;28;20037;-74
2022/10/01 04:47:12;;;;;;;14.52;3.15;;;13.80;99.90;;;;;;5032280;28;20434;-73
2022/10/01 04:49:37;;;;;;;19.48;3.85;;;13.90;99.90;;;;;;5031850;28;20064;-74
2022/10/01 04:52:03;;;;;;;19.38;3.63;;;13.80;99.90;;;;;;5032142;28;20117;-74
2022/10/01 04:54:29;;;;;;;14.07;2.80;;;13.80;99.90;;;;;;5032061;28;20120;-74
2022/10/01 04:56:56;;;;;;;16.63;3.30;;;13.80;99.90;;;;;;5032268;28;20535;-73
2022/10/01 04:59:22;;;;;;;15.00;3.35;;;13.80;99.90;;;;;;5032240;28;20095;-74
2022/10/01 05:01:47;;;;;;;18.73;3.28;;;13.70;99.90;;;;;;5032507;28;20038;-74
2022/10/01 05:04:13;;;;;;;18.65;3.08;;;13.70;99.90;;;;;;5035846;28;20026;-74
2022/10/01 05:06:40;;;;;;;17.85;2.92;;;13.70;99.90;;;;;;5036082;28;20028;-74
2022/10/01 05:09:05;;;;;;;20.23;3.20;;;13.70;99.90;;;;;;5036301;28;20113;-73
2022/10/01 05:11:31;;;;;;;21.73;3.38;;;13.70;99.90;;;;;;5035951;28;20127;-73
2022/10/01 05:13:56;;;;;;;17.15;3.00;;;13.70;99.90;;;;;;5036175;28;20029;-74
2022/10/01 05:16:22;;;;;;;25.80;3.38;;;13.60;99.90;;;;;;5036070;28;20038;-73
2022/10/01 05:18:48;;;;;;;13.13;2.90;;;13.70;99.90;;;;;;5035290;28;20115;-73
2022/10/01 05:21:14;;;;;;;22.02;3.08;;;13.70;99.90;;;;;;5035920;28;20030;-73
2022/10/01 05:23:40;;;;;;;16.85;3.88;;;13.70;99.90;;;;;;5035934;28;20033;-73
2022/10/01 05:26:06;;;;;;;15.85;3.08;;;13.70;99.90;;;;;;5035877;28;20057;-73
2022/10/01 05:28:33;;;;;;;15.18;2.55;;;13.80;99.90;;;;;;5035898;28;20034;-73
2022/10/01 05:31:00;;;;;;;13.38;2.80;;;13.80;99.90;;;;;;5035750;28;20025;-73
2022/10/01 05:33:27;;;;;;;10.60;2.78;;;13.80;99.90;;;;;;5035753;28;20069;-73
2022/10/01 05:35:53;;;;;;;14.55;2.60;;;13.90;99.90;;;;;;5034168;28;20037;-73
2022/10/01 05:38:18;;;;;;;19.10;2.92;;;14.00;99.90;;;;;;5034333;28;20103;-73
2022/10/01 05:40:45;;;;;;;18.58;2.65;;;14.10;99.90;;;;;;5035645;28;20129;-73
2022/10/01 05:43:11;;;;;;;14.73;3.72;;;14.10;99.90;;;;;;5033596;28;20038;-73
2022/10/01 05:45:37;;;;;;;16.05;2.90;;;14.10;99.90;;;;;;5035356;28;20044;-73
2022/10/01 05:48:05;;;;;;;16.33;2.92;;;14.10;99.90;;;;;;5035505;28;20101;-73
2022/10/01 05:50:33;;;;;;;14.50;2.70;;;14.10;99.90;;;;;;5035021;28;20025;-73
2022/10/01 05:53:00;;;;;;;15.85;2.88;;;14.10;99.90;;;;;;5035266;28;20036;-73
2022/10/01 05:55:32;;;;;;;18.05;2.90;;;14.10;99.90;;;;;;5035131;28;20068;-73
2022/10/01 05:58:00;;;;;;;18.88;2.95;;;14.10;99.90;;;;;;5035002;28;20034;-72
2022/10/01 06:00:29;;;;;;;14.25;3.60;;;14.10;99.90;;;;;;5034750;28;20040;-73
2022/10/01 06:03:00;;;;;;;14.48;2.70;;;14.10;99.90;;;;;;5035152;28;20035;-72
2022/10/01 06:05:27;;;;;;;19.25;3.30;;;14.10;99.90;;;;;;5034750;28;20030;-72
2022/10/01 06:07:52;;;;;;;13.50;3.00;;;14.10;99.90;;;;;;5034293;28;20061;-72
2022/10/01 06:10:19;;;;;;;15.20;2.63;;;14.10;99.90;;;;;;5034976;28;20061;-73
2022/10/01 06:12:45;;;;;;;12.70;2.72;;;14.10;99.90;;;;;;5042766;28;20045;-73
2022/10/01 06:15:12;;;;;;;14.82;3.42;;;14.10;99.90;;;;;;5054862;28;20102;-73
2022/10/01 06:17:44;;;;;;;11.98;2.42;;;14.20;99.90;;;;;;5055001;28;20035;-73
2022/10/01 06:20:11;;;;;;;13.35;2.65;;;14.30;99.90;;;;;;5054835;28;20086;-73
2022/10/01 06:22:38;;;;;;;12.00;2.33;;;14.40;99.90;;;;;;5054512;28;20075;-73
2022/10/01 06:25:05;;;;;;;14.52;3.08;;;14.60;99.90;;;;;;5051074;28;20468;-73
2022/10/01 06:27:30;;;;;;;13.68;2.67;;;14.70;99.90;;;;;;5033757;28;20033;-73
2022/10/01 06:29:56;;;;;;;18.15;2.80;;;14.70;99.90;;;;;;5034354;28;20066;-73
2022/10/01 06:32:22;;;;;;;13.30;2.78;;;14.80;99.90;;;;;;5034509;28;20060;-72
2022/10/01 06:34:47;;;;;;;15.95;2.70;;;14.80;99.90;;;;;;5033858;28;20041;-73
2022/10/01 06:37:13;;;;;;;18.17;4.53;;;14.90;99.90;;;;;;5034471;28;20603;-74
2022/10/01 06:39:38;;;;;;;13.23;3.10;;;15.10;99.90;;;;;;5034585;28;20463;-75
2022/10/01 06:42:04;;;;;;;20.42;3.67;;;15.20;99.90;;;;;;5034351;28;20456;-75
2022/10/01 06:44:29;;;;;;;21.27;3.55;;;15.30;99.90;;;;;;5034585;28;20037;-74
2022/10/01 06:46:55;;;;;;;17.05;3.70;;;15.30;99.90;;;;;;5034433;28;20390;-74
2022/10/01 06:49:21;;;;;;;18.00;4.18;;;15.30;99.90;;;;;;5034224;28;20454;-74
2022/10/01 06:54:31;;;;;;;17.77;3.55;;;15.10;99.90;;;;;;5034277;28;20087;-74
2022/10/01 06:56:56;;;;;;;15.95;3.85;;;15.00;99.90;;;;;;5049238;28;20021;-74
2022/10/01 06:59:22;;;;;;;21.63;3.83;;;14.90;99.90;;;;;;5033786;28;20018;-74
2022/10/01 07:01:49;;;;;;;18.77;3.33;;;14.80;99.90;;;;;;5034087;28;20118;-74
2022/10/01 07:04:14;;;;;;;14.18;3.83;;;14.80;99.90;;;;;;5033555;28;20434;-74
2022/10/01 07:06:40;;;;;;;16.45;3.33;;;14.80;99.90;;;;;;5032170;28;20065;-74
2022/10/01 07:09:05;;;;;;;16.60;3.72;;;14.90;99.90;;;;;;5033615;28;20021;-75
2022/10/01 07:11:31;;;;;;;16.63;3.50;;;14.90;99.90;;;;;;5033527;28;20051;-74
2022/10/01 07:13:56;;;;;;;17.92;4.32;;;15.00;99.90;;;;;;5033527;28;20041;-74
2022/10/01 07:16:22;;;;;;;16.35;4.28;;;15.00;99.90;;;;;;5033625;28;20029;-72
2022/10/01 07:18:48;;;;;;;22.48;3.58;;;15.10;99.90;;;;;;5033127;28;20490;-73
2022/10/01 07:21:13;;;;;;;17.02;4.65;;;15.20;99.90;;;;;;5032810;28;20026;-73
2022/10/01 07:23:39;;;;;;;16.23;4.13;;;15.30;99.90;;;;;;5033512;28;20029;-73
2022/10/01 07:26:07;;;;;;;20.80;4.22;;;15.40;99.90;;;;;;5032612;28;20037;-73
2022/10/01 07:28:33;;;;;;;19.00;3.17;;;15.60;99.90;;;;;;5033318;28;20470;-73
2022/10/01 07:31:10;;;;;;;25.02;4.95;;;15.70;99.90;;;;;;5033002;28;20033;-73
2022/10/01 07:33:36;;;;;;;11.68;2.90;;;15.90;99.90;;;;;;5031481;28;20036;-73
2022/10/01 07:36:04;;;;;;;15.27;4.10;;;16.10;99.90;;;;;;5032941;28;20037;-72
2022/10/01 07:38:29;;;;;;;14.93;3.33;;;16.20;99.90;;;;;;5033196;28;20029;-73
2022/10/01 07:40:57;;;;;;;15.98;3.75;;;16.20;99.90;;;;;;5033384;28;20052;-72
2022/10/01 07:43:22;;;;;;;13.02;2.90;;;16.20;99.90;;;;;;5033366;28;20116;-72
2022/10/01 07:45:56;;;;;;;18.25;3.40;;;16.20;99.90;;;;;;5031049;28;20160;-72
2022/10/01 07:48:23;;;;;;;17.50;2.67;;;16.20;99.90;;;;;;5021605;28;20040;-72
2022/10/01 07:50:49;;;;;;;15.38;2.50;;;16.30;99.90;;;;;;5032157;28;20025;-72
2022/10/01 07:53:15;;;;;;;16.00;3.22;;;16.50;99.90;;;;;;5033197;28;20031;-73
2022/10/01 07:55:43;;;;;;;11.75;3.22;;;16.60;99.90;;;;;;5033204;28;20037;-72
2022/10/01 07:58:10;;;;;;;15.45;3.35;;;16.80;99.90;;;;;;5032804;28;20343;-72
2022/10/01 08:00:36;;;;;;;20.48;4.45;;;17.00;99.90;;;;;;5033304;28;20029;-73
2022/10/01 08:03:02;;;;;;;15.52;3.67;;;17.40;99.90;;;;;;5032915;28;20112;-72
2022/10/01 08:05:31;;;;;;;11.00;3.20;;;17.90;99.90;;;;;;5032510;28;20554;-73
2022/10/01 08:08:02;;;;;;;15.35;2.63;;;18.60;99.90;;;;;;5032519;28;20112;-73
2022/10/01 08:10:28;;;;;;;9.77;2.10;;;19.10;99.90;;;;;;5032602;28;20029;-72
2022/10/01 08:13:07;;;;;;;8.98;1.98;;;19.60;99.90;;;;;;5031389;28;20049;-72
2022/10/01 08:15:33;;;;;;;13.13;2.03;;;20.20;99.90;;;;;;5029191;28;20040;-73
2022/10/01 08:18:03;;;;;;;13.05;1.90;;;20.50;99.90;;;;;;5032461;28;20132;-73
2022/10/01 08:20:28;;;;;;;10.10;1.90;;;20.90;99.90;;;;;;5032296;28;20099;-73
2022/10/01 08:23:04;;;;;;;12.60;1.75;;;21.20;99.90;;;;;;5032548;28;20136;-73
2022/10/01 08:25:30;;;;;;;15.95;2.40;;;21.30;99.90;;;;;;5032257;28;20033;-73
2022/10/01 08:27:56;;;;;;;9.88;1.98;;;21.60;99.90;;;;;;5032331;28;20029;-73
2022/10/01 08:30:21;;;;;;;6.68;1.90;;;21.70;99.90;;;;;;5032160;28;20025;-73
2022/10/01 08:32:47;;;;;;;9.15;2.65;;;21.90;99.90;;;;;;5031888;28;20467;-73
2022/10/01 08:35:12;;;;;;;12.20;1.90;;;22.00;99.90;;;;;;5032385;28;20037;-73
2022/10/01 08:37:38;;;;;;;14.57;2.75;;;21.80;99.90;;;;;;5031102;28;20105;-73
2022/10/01 08:40:04;;;;;;;12.05;2.67;;;21.30;99.90;;;;;;5032354;28;20452;-72
2022/10/01 08:42:36;;;;;;;20.80;3.58;;;20.80;99.90;;;;;;5032506;28;20038;-73
2022/10/01 08:45:11;;;;;;;17.75;3.38;;;20.50;99.90;;;;;;5031890;28;20037;-72
2022/10/01 08:47:48;;;;;;;10.82;2.67;;;20.30;99.90;;;;;;5031758;28;20116;-73
2022/10/01 08:50:24;;;;;;;11.68;1.98;;;20.40;99.90;;;;;;5030867;28;20444;-73
2022/10/01 08:52:55;;;;;;;8.82;2.10;;;20.40;99.90;;;;;;5032079;28;20108;-72
2022/10/01 08:55:24;;;;;;;13.47;2.50;;;20.30;99.90;;;;;;5031912;28;20056;-72
2022/10/01 08:58:01;;;;;;;12.38;2.60;;;19.90;99.90;;;;;;5047209;28;20077;-72
2022/10/01 09:00:29;;;;;;;20.90;4.35;;;19.70;99.90;;;;;;5032691;28;20100;-73
2022/10/01 09:02:58;;;;;;;20.75;3.80;;;20.00;99.90;;;;;;5032006;28;20033;-72
2022/10/01 09:05:28;;;;;;;12.25;2.30;;;20.20;99.90;;;;;;5032171;28;20032;-73
2022/10/01 09:08:06;;;;;;;13.82;2.05;;;20.50;99.90;;;;;;5031756;28;20533;-72
2022/10/01 09:10:54;;;;;;;13.23;2.88;;;20.70;99.90;;;;;;5020093;28;20402;-72
2022/10/01 09:13:50;;;;;;;16.35;2.95;;;20.90;99.90;;;;;;5032208;28;20022;-74
2022/10/01 09:16:40;;;;;;;15.77;3.65;;;21.30;99.90;;;;;;5031694;28;20102;-72
2022/10/01 09:19:41;;;;;;;11.93;2.75;;;21.70;99.90;;;;;;5032122;28;20473;-72
2022/10/01 09:22:26;;;;;;;11.95;2.45;;;22.00;99.90;;;;;;5031674;28;20494;-73
2022/10/01 09:25:02;;;;;;;14.45;2.70;;;21.60;99.90;;;;;;5031454;28;20033;-72
2022/10/01 09:27:27;;;;;;;17.05;2.42;;;21.10;99.90;;;;;;5031580;28;20025;-73
2022/10/01 09:30:16;;;;;;;15.35;3.40;;;20.80;99.90;;;;;;5031792;28;20097;-74
2022/10/01 09:32:47;;;;;;;13.85;2.83;;;20.50;99.90;;;;;;5031454;28;20476;-73
2022/10/01 09:35:42;;;;;;;12.95;2.85;;;20.60;99.90;;;;;;5031325;28;20394;-73
2022/10/01 09:38:22;;;;;;;15.32;3.28;;;21.00;99.90;;;;;;5031994;28;20026;-74
2022/10/01 09:40:53;;;;;;;23.20;4.85;;;21.50;99.90;;;;;;5031877;28;20026;-73
2022/10/01 09:43:25;;;;;;;19.10;6.07;;;22.20;99.90;;;;;;5031251;28;20383;-73
2022/10/01 09:45:51;;;;;;;18.05;4.80;;;23.10;99.30;;;;;;5031245;28;20025;-73
2022/10/01 09:48:37;;;;;;;16.08;3.78;;;23.40;98.70;;;;;;5030868;28;20032;-74
2022/10/01 09:51:16;;;;;;;23.13;4.50;;;23.50;98.30;;;;;;5034070;28;20474;-73
2022/10/01 09:54:00;;;;;;;16.05;4.05;;;23.40;97.60;;;;;;5035267;28;20531;-73
2022/10/01 09:56:41;;;;;;;18.83;5.00;;;22.80;98.10;;;;;;5035531;28;20048;-73
2022/10/01 09:59:12;;;;;;;12.20;2.70;;;22.60;98.40;;;;;;5035301;28;20037;-73
2022/10/01 10:01:53;;;;;;;10.57;3.08;;;22.70;98.10;;;;;;5035210;28;20379;-73
2022/10/01 10:04:22;;;;;;;14.38;2.88;;;23.00;97.50;;;;;;5030825;28;20091;-71
2022/10/01 10:06:49;;;;;;;12.27;3.55;;;23.40;97.40;;;;;;5033868;28;20026;-71
2022/10/01 10:09:17;;;;;;;17.80;4.70;;;23.60;97.00;;;;;;5025297;28;20033;-71
2022/10/01 10:11:44;;;;;;;12.30;4.18;;;23.80;96.80;;;;;;5014772;28;20049;-72
2022/10/01 10:14:19;;;;;;;18.17;4.68;;;23.80;97.00;;;;;;5014923;28;20049;-71
2022/10/01 10:16:47;;;;;;;17.13;4.10;;;23.90;96.10;;;;;;5027161;28;20497;-74
2022/10/01 10:19:25;;;;;;;14.95;4.50;;;23.60;96.40;;;;;;5034995;28;20108;-72
2022/10/01 10:21:53;;;;;;;16.35;3.65;;;23.30;96.70;;;;;;5034792;28;20087;-72
2022/10/01 10:24:30;;;;;;;12.30;2.67;;;22.80;97.40;;;;;;5034441;28;20083;-72
2022/10/01 10:26:57;;;;;;;13.88;2.85;;;22.40;98.00;;;;;;5034322;28;20109;-72
2022/10/01 10:29:29;;;;;;;14.02;3.60;;;22.30;98.50;;;;;;5034290;28;20463;-72
2022/10/01 10:31:56;;;;;;;17.10;2.70;;;22.30;97.80;;;;;;5034236;28;20172;-72
2022/10/01 10:34:37;;;;;;;16.38;3.38;;;22.00;98.50;;;;;;5034348;28;20039;-73
2022/10/01 10:37:09;;;;;;;9.65;2.47;;;22.00;98.90;;;;;;5034473;28;20033;-72
2022/10/01 10:39:38;;;;;;;12.23;3.05;;;22.50;99.10;;;;;;5034094;28;20486;-73
2022/10/01 10:42:05;;;;;;;16.38;3.83;;;23.20;97.90;;;;;;5032801;28;20072;-72
2022/10/01 10:44:37;;;;;;;16.48;3.47;;;23.90;96.70;;;;;;5028194;28;20033;-73
2022/10/01 10:47:08;;;;;;;16.23;4.50;;;24.50;95.50;;;;;;5032874;28;20022;-72
2022/10/01 10:50:00;;;;;;;15.45;4.03;;;24.60;95.00;;;;;;5034128;28;20426;-73
2022/10/01 10:52:35;;;;;;;16.67;3.47;;;24.40;95.10;;;;;;5032931;28;20045;-73
2022/10/01 10:55:22;;;;;;;10.60;2.92;;;24.30;95.30;;;;;;5028662;28;20049;-73
2022/10/01 10:57:48;;;;;;;12.82;3.50;;;24.50;94.90;;;;;;5010388;28;20380;-72
2022/10/01 11:00:17;;;;;;;15.02;3.80;;;24.70;95.20;;;;;;5017948;28;20033;-72
2022/10/01 11:03:13;;;;;;;10.38;3.10;;;25.10;94.60;;;;;;5033203;28;20478;-72
2022/10/01 11:05:41;;;;;;;14.43;3.53;;;25.70;93.00;;;;;;5032250;28;20049;-72
2022/10/01 11:08:10;;;;;;;17.15;5.25;;;25.80;92.10;;;;;;5033360;28;20083;-72
2022/10/01 11:10:57;;;;;;;14.35;3.10;;;25.40;92.20;;;;;;5033612;28;20026;-72
2022/10/01 11:13:41;;;;;;;16.85;4.47;;;24.90;93.00;;;;;;5033759;28;20033;-72
2022/10/01 11:16:28;;;;;;;9.80;2.38;;;24.70;93.10;;;;;;5032196;28;20052;-72
2022/10/01 11:19:15;;;;;;;12.90;2.92;;;24.80;93.30;;;;;;5033209;28;20112;-72
2022/10/01 11:22:30;;;;;;;12.63;2.33;;;24.80;93.30;;;;;;5032124;28;20466;-72
2022/10/01 11:25:14;;;;;;;12.50;2.70;;;24.80;93.00;;;;;;5033397;28;20029;-72
2022/10/01 11:27:49;;;;;;;14.35;3.17;;;25.00;92.30;;;;;;5027377;28;20033;-73
2022/10/01 11:30:21;;;;;;;13.35;3.10;;;25.10;92.70;;;;;;5032676;28;20033;-72
2022/10/01 11:32:53;;;;;;;16.38;3.00;;;25.30;92.20;;;;;;5031734;28;20348;-72
2022/10/01 11:36:00;;;;;;;15.40;2.53;;;25.50;92.00;;;;;;5032384;28;20068;-73
2022/10/01 11:39:14;;;;;;;12.00;2.90;;;25.40;92.10;;;;;;4983936;28;20034;-72
2022/10/01 11:41:49;;;;;;;12.30;2.45;;;25.10;91.90;;;;;;5023470;28;20041;-72
2022/10/01 11:44:32;;;;;;;13.43;4.50;;;24.90;91.80;;;;;;5033036;28;20522;-72
2022/10/01 11:47:07;;;;;;;15.63;3.08;;;24.50;92.00;;;;;;5033345;28;20483;-72
2022/10/01 11:49:40;;;;;;;15.10;3.83;;;24.10;92.20;;;;;;5032506;28;20527;-72
2022/10/01 11:52:11;;;;;;;16.67;3.50;;;23.50;92.90;;;;;;5032605;28;20021;-72
2022/10/01 11:58:49;;;;;;;14.07;3.47;;;23.00;94.10;;;;;;5030899;28;20099;-72
2022/10/01 12:00:28;;;;;;;13.13;3.35;;;23.00;94.30;;;;;;5032949;28;20165;-72
2022/10/01 12:03:01;;;;;;;12.30;2.70;;;23.10;93.90;;;;;;5032807;28;20528;-72
2022/10/01 12:05:30;;;;;;;14.50;3.45;;;23.40;93.90;;;;;;5032799;28;20833;-72
2022/10/01 12:08:07;;;;;;;15.07;3.25;;;23.60;93.70;;;;;;5031063;28;20029;-72
2022/10/01 12:10:53;;;;;;;14.35;3.00;;;23.40;93.20;;;;;;5036386;28;20041;-72
2022/10/01 12:13:43;;;;;;;15.05;3.15;;;23.10;94.10;;;;;;5037053;28;20029;-72
2022/10/01 12:16:19;;;;;;;18.70;3.88;;;22.60;94.40;;;;;;5037859;28;20041;-72
2022/10/01 12:19:00;;;;;;;13.88;2.38;;;22.60;95.00;;;;;;5041280;28;20075;-72
2022/10/01 12:21:32;;;;;;;7.53;2.35;;;22.80;95.10;;;;;;5042304;28;20020;-72
2022/10/01 12:23:58;;;;;;;;;;;22.80;94.30;;;;;;5041576;28;20053;-72
2022/10/01 12:26:29;;;;;;;9.57;2.28;;;22.90;94.70;;;;;;5040716;28;19945;-72
2022/10/01 12:29:27;;;;;;;9.70;2.83;;;23.20;93.90;;;;;;5041028;28;20514;-72
2022/10/01 12:32:16;;;;;;;9.55;2.58;;;23.50;93.80;;;;;;5033087;28;20112;-72
2022/10/01 12:35:02;;;;;;;14.60;3.20;;;23.60;93.60;;;;;;5040969;28;20037;-72
2022/10/01 12:37:28;;;;;;;10.70;2.83;;;23.80;93.50;;;;;;5037299;28;20053;-73
2022/10/01 12:40:03;;;;;;;14.35;2.35;;;23.80;92.70;;;;;;5041241;28;20496;-72
2022/10/01 12:42:51;;;;;;;10.15;2.60;;;24.00;93.00;;;;;;5031360;28;20021;-73
2022/10/01 12:45:49;;;;;;;13.27;2.10;;;23.90;92.90;;;;;;5031795;28;20438;-73
2022/10/01 12:48:43;;;;;;;10.73;2.08;;;23.40;93.60;;;;;;5032585;28;20467;-73
2022/10/01 12:51:30;;;;;;;13.43;2.40;;;23.10;93.80;;;;;;5028361;28;20392;-73
2022/10/01 12:54:20;;;;;;;16.98;2.85;;;22.70;94.20;;;;;;5032106;28;20029;-73
2022/10/01 12:57:00;;;;;;;10.85;1.88;;;22.50;94.80;;;;;;5031967;28;20038;-73
2022/10/01 12:59:47;;;;;;;12.68;2.03;;;22.30;95.30;;;;;;5031681;28;20021;-73
2022/10/01 13:02:46;;;;;;;12.63;2.20;;;22.10;95.80;;;;;;5031470;28;20544;-73
2022/10/01 13:05:54;;;;;;;15.38;3.28;;;21.90;96.20;;;;;;5031046;28;20041;-73
2022/10/01 13:09:02;;;;;;;15.02;2.58;;;21.70;96.50;;;;;;5011566;28;20034;-73
2022/10/01 13:11:51;;;;;;;17.73;2.92;;;21.60;96.10;;;;;;5010833;28;20452;-72
2022/10/01 13:14:17;;;;;;;17.98;3.10;;;21.20;96.50;;;;;;5011892;28;20120;-73